createdAt,value
2018-08-11T00:00:56.021Z,22.10
2018-08-11T00:03:24.257Z,22.10
2018-08-11T00:05:52.596Z,22.10
2018-08-11T00:08:20.870Z,22.10
2018-08-11T00:10:49.255Z,22.10
2018-08-11T00:13:17.682Z,22.10
2018-08-11T00:15:45.946Z,22.10
2018-08-11T00:18:14.239Z,22.10
2018-08-11T00:20:42.607Z,22.10
2018-08-11T00:23:10.986Z,22.10
2018-08-11T00:25:39.263Z,22.00
2018-08-11T00:28:07.778Z,22.00
2018-08-11T00:30:36.483Z,22.00
2018-08-11T00:33:04.836Z,21.90
2018-08-11T00:35:33.379Z,21.90
2018-08-11T00:38:01.767Z,21.90
2018-08-11T00:40:30.240Z,21.80
2018-08-11T00:42:58.679Z,21.80
2018-08-11T00:45:27.058Z,21.80
2018-08-11T00:47:55.415Z,21.80
2018-08-11T00:50:30.099Z,21.80
2018-08-11T00:52:58.442Z,21.80
2018-08-11T00:55:26.858Z,21.80
2018-08-11T00:57:55.249Z,21.80
2018-08-11T01:00:24.017Z,21.80
2018-08-11T01:02:52.337Z,21.80
2018-08-11T01:05:21.528Z,21.70
2018-08-11T01:07:50.842Z,21.80
2018-08-11T01:10:19.590Z,21.70
2018-08-11T01:12:48.894Z,21.70
2018-08-11T01:15:19.067Z,21.60
2018-08-11T01:17:47.946Z,21.60
2018-08-11T01:20:16.612Z,21.60
2018-08-11T01:22:46.019Z,21.40
2018-08-11T01:25:14.810Z,21.40
2018-08-11T01:27:43.305Z,21.50
2018-08-11T01:30:15.423Z,21.40
2018-08-11T01:32:43.838Z,21.40
2018-08-11T01:35:12.432Z,21.30
2018-08-11T01:37:41.710Z,21.20
2018-08-11T01:40:11.640Z,21.10
2018-08-11T01:42:40.824Z,21.00
2018-08-11T01:45:10.221Z,21.00
2018-08-11T01:47:39.123Z,20.80
2018-08-11T01:50:08.726Z,20.70
2018-08-11T01:52:37.301Z,20.50
2018-08-11T01:55:05.576Z,20.40
2018-08-11T01:57:34.433Z,20.30
2018-08-11T02:00:02.757Z,20.10
2018-08-11T02:02:31.078Z,19.90
2018-08-11T02:04:59.363Z,19.70
2018-08-11T02:07:27.798Z,19.40
2018-08-11T02:09:56.037Z,19.40
2018-08-11T02:12:25.006Z,19.40
2018-08-11T02:14:53.322Z,19.30
2018-08-11T02:17:21.656Z,19.20
2018-08-11T02:19:50.291Z,19.20
2018-08-11T02:22:18.622Z,19.00
2018-08-11T02:24:46.948Z,19.00
2018-08-11T02:27:15.215Z,19.00
2018-08-11T02:29:43.644Z,19.00
2018-08-11T02:32:11.864Z,18.90
2018-08-11T02:34:40.254Z,19.00
2018-08-11T02:37:08.621Z,19.00
2018-08-11T02:39:36.959Z,19.00
2018-08-11T02:42:05.238Z,19.10
2018-08-11T02:44:33.509Z,19.10
2018-08-11T02:47:01.782Z,19.20
2018-08-11T02:49:30.031Z,19.30
2018-08-11T02:51:58.267Z,19.40
2018-08-11T02:54:26.549Z,19.50
2018-08-11T02:56:54.876Z,19.60
2018-08-11T02:59:23.624Z,19.60
2018-08-11T03:01:53.123Z,19.70
2018-08-11T03:04:21.716Z,19.70
2018-08-11T03:06:50.212Z,19.60
2018-08-11T03:09:18.711Z,19.60
2018-08-11T03:11:47.162Z,19.60
2018-08-11T03:14:15.430Z,19.70
2018-08-11T03:16:43.799Z,19.70
2018-08-11T03:19:12.183Z,19.60
2018-08-11T03:21:40.514Z,19.50
2018-08-11T03:24:08.970Z,19.50
2018-08-11T03:26:37.828Z,19.60
2018-08-11T03:29:06.151Z,19.70
2018-08-11T03:31:34.443Z,19.70
2018-08-11T03:34:03.424Z,19.80
2018-08-11T03:36:31.665Z,19.80
2018-08-11T03:38:59.904Z,19.80
2018-08-11T03:41:28.221Z,19.90
2018-08-11T03:43:59.435Z,20.00
2018-08-11T03:46:27.617Z,20.00
2018-08-11T03:48:55.822Z,19.90
2018-08-11T03:51:24.196Z,19.90
2018-08-11T03:53:52.623Z,19.90
2018-08-11T03:56:20.935Z,19.90
2018-08-11T03:58:49.250Z,19.80
2018-08-11T04:01:17.575Z,19.80
2018-08-11T04:03:45.875Z,19.80
2018-08-11T04:06:14.145Z,19.60
2018-08-11T04:08:42.459Z,19.50
2018-08-11T04:11:10.735Z,19.40
2018-08-11T04:13:39.011Z,19.30
2018-08-11T04:16:07.336Z,19.30
2018-08-11T04:18:35.572Z,19.30
2018-08-11T04:21:03.875Z,19.30
2018-08-11T04:23:32.184Z,19.40
2018-08-11T04:26:00.535Z,19.50
2018-08-11T04:28:29.380Z,19.50
2018-08-11T04:30:57.638Z,19.50
2018-08-11T04:33:25.895Z,19.50
2018-08-11T04:35:54.237Z,19.50
2018-08-11T04:38:22.843Z,19.50
2018-08-11T04:40:51.178Z,19.40
2018-08-11T04:43:19.558Z,19.30
2018-08-11T04:45:47.874Z,19.30
2018-08-11T04:48:16.126Z,19.30
2018-08-11T04:50:44.402Z,19.40
2018-08-11T04:53:12.839Z,19.30
2018-08-11T04:55:41.083Z,19.30
2018-08-11T04:58:09.359Z,19.40
2018-08-11T05:00:37.693Z,19.50
2018-08-11T05:03:06.114Z,19.60
2018-08-11T05:05:39.643Z,19.70
2018-08-11T05:08:07.922Z,19.80
2018-08-11T05:10:36.213Z,19.80
2018-08-11T05:13:04.499Z,19.80
2018-08-11T05:15:32.817Z,19.80
2018-08-11T05:18:01.464Z,19.80
2018-08-11T05:20:29.956Z,19.70
2018-08-11T05:22:58.309Z,19.60
2018-08-11T05:25:26.598Z,19.50
2018-08-11T05:27:54.954Z,19.50
2018-08-11T05:30:23.772Z,19.50
2018-08-11T05:32:52.091Z,19.60
2018-08-11T05:35:20.366Z,19.70
2018-08-11T05:37:48.638Z,19.80
2018-08-11T05:40:16.997Z,19.80
2018-08-11T05:42:45.241Z,19.70
2018-08-11T05:45:13.545Z,19.70
2018-08-11T05:47:41.851Z,19.80
2018-08-11T05:50:10.109Z,19.80
2018-08-11T05:52:38.350Z,20.10
2018-08-11T05:55:06.742Z,20.30
2018-08-11T05:57:34.943Z,20.20
2018-08-11T06:00:03.251Z,20.10
2018-08-11T06:02:31.553Z,19.80
2018-08-11T06:04:59.830Z,19.70
2018-08-11T06:07:28.195Z,19.50
2018-08-11T06:09:56.467Z,19.50
2018-08-11T06:12:24.862Z,19.50
2018-08-11T06:14:53.181Z,19.30
2018-08-11T06:17:21.458Z,19.30
2018-08-11T06:19:49.675Z,19.20
2018-08-11T06:22:17.918Z,19.30
2018-08-11T06:24:46.207Z,19.50
2018-08-11T06:27:14.466Z,19.60
2018-08-11T06:29:42.734Z,19.70
2018-08-11T06:32:11.116Z,19.70
2018-08-11T06:34:39.294Z,19.70
2018-08-11T06:37:07.650Z,19.70
2018-08-11T06:39:35.903Z,19.60
2018-08-11T06:42:04.166Z,19.40
2018-08-11T06:44:32.493Z,19.40
2018-08-11T06:47:00.856Z,19.50
2018-08-11T06:49:29.065Z,19.50
2018-08-11T06:51:57.325Z,19.50
2018-08-11T06:54:25.814Z,19.50
2018-08-11T06:56:54.079Z,19.80
2018-08-11T06:59:22.420Z,20.20
2018-08-11T07:01:50.715Z,20.20
2018-08-11T07:04:19.010Z,20.10
2018-08-11T07:06:47.317Z,20.20
2018-08-11T07:09:15.570Z,20.20
2018-08-11T07:11:43.862Z,20.20
2018-08-11T07:14:12.186Z,20.00
2018-08-11T07:16:40.583Z,20.00
2018-08-11T07:19:08.878Z,20.10
2018-08-11T07:21:37.102Z,20.10
2018-08-11T07:24:05.489Z,20.20
2018-08-11T07:26:33.818Z,20.10
2018-08-11T07:29:02.043Z,20.10
2018-08-11T07:31:30.358Z,20.20
2018-08-11T07:33:58.671Z,20.60
2018-08-11T07:36:27.052Z,20.70
2018-08-11T07:38:55.278Z,20.60
2018-08-11T07:41:23.630Z,20.80
2018-08-11T07:43:51.910Z,21.00
2018-08-11T07:46:20.210Z,21.00
2018-08-11T07:48:48.543Z,20.90
2018-08-11T07:51:16.890Z,21.00
2018-08-11T07:53:45.202Z,21.20
2018-08-11T07:56:13.459Z,21.40
2018-08-11T07:58:41.749Z,21.60
2018-08-11T08:01:10.822Z,21.40
2018-08-11T08:03:39.311Z,21.30
2018-08-11T08:06:07.617Z,21.00
2018-08-11T08:08:36.093Z,20.80
2018-08-11T08:11:04.413Z,20.80
2018-08-11T08:13:32.742Z,21.00
2018-08-11T08:16:01.090Z,21.10
2018-08-11T08:18:29.648Z,21.30
2018-08-11T08:20:57.904Z,22.10
2018-08-11T08:23:26.155Z,24.30
2018-08-11T08:25:54.425Z,25.60
2018-08-11T08:28:22.705Z,25.30
2018-08-11T08:30:50.968Z,24.50
2018-08-11T08:33:19.315Z,23.80
2018-08-11T08:35:48.089Z,24.10
2018-08-11T08:38:16.560Z,25.80
2018-08-11T08:40:44.849Z,26.50
2018-08-11T08:43:13.107Z,27.90
2018-08-11T08:45:41.707Z,28.30
2018-08-11T08:48:10.116Z,29.30
2018-08-11T08:50:38.439Z,29.80
2018-08-11T08:53:06.743Z,29.80
2018-08-11T08:55:35.062Z,28.90
2018-08-11T08:58:03.993Z,28.30
2018-08-11T09:00:32.570Z,27.20
2018-08-11T09:03:01.019Z,26.00
2018-08-11T09:05:29.261Z,25.20
2018-08-11T09:07:58.576Z,24.10
2018-08-11T09:10:27.062Z,23.70
2018-08-11T09:12:55.476Z,23.50
2018-08-11T09:15:23.822Z,23.30
2018-08-11T09:17:52.228Z,23.10
2018-08-11T09:20:20.711Z,23.20
2018-08-11T09:22:49.048Z,23.20
2018-08-11T09:25:17.309Z,23.00
2018-08-11T09:27:45.918Z,22.80
2018-08-11T09:30:14.262Z,23.00
2018-08-11T09:32:42.508Z,23.00
2018-08-11T09:35:11.028Z,22.90
2018-08-11T09:37:39.562Z,22.90
2018-08-11T09:40:08.314Z,23.00
2018-08-11T09:42:36.674Z,23.30
2018-08-11T09:45:05.709Z,23.40
2018-08-11T09:47:34.059Z,23.50
2018-08-11T09:50:02.971Z,23.40
2018-08-11T09:52:31.229Z,23.30
2018-08-11T09:54:59.790Z,23.10
2018-08-11T09:57:28.053Z,23.00
2018-08-11T09:59:56.701Z,22.70
2018-08-11T10:02:24.974Z,22.60
2018-08-11T10:04:53.371Z,22.70
2018-08-11T10:07:21.724Z,22.90
2018-08-11T10:09:50.175Z,23.00
2018-08-11T10:12:18.459Z,23.10
2018-08-11T10:14:46.774Z,23.10
2018-08-11T10:17:15.068Z,22.90
2018-08-11T10:19:43.456Z,22.60
2018-08-11T10:22:11.722Z,22.80
2018-08-11T10:24:40.039Z,23.00
2018-08-11T10:27:08.326Z,23.10
2018-08-11T10:29:36.678Z,23.10
2018-08-11T10:32:04.921Z,23.30
2018-08-11T10:34:33.265Z,23.50
2018-08-11T10:37:01.497Z,23.70
2018-08-11T10:39:29.734Z,23.50
2018-08-11T10:41:58.430Z,23.40
2018-08-11T10:44:26.717Z,23.40
2018-08-11T10:46:55.351Z,23.40
2018-08-11T10:49:23.676Z,23.30
2018-08-11T10:51:51.954Z,23.30
2018-08-11T10:54:20.715Z,23.30
2018-08-11T10:56:48.960Z,23.40
2018-08-11T10:59:17.341Z,23.60
2018-08-11T11:01:45.615Z,23.40
2018-08-11T11:04:14.141Z,23.30
2018-08-11T11:06:42.389Z,23.30
2018-08-11T11:09:11.145Z,23.20
2018-08-11T11:11:39.978Z,23.30
2018-08-11T11:14:08.292Z,23.20
2018-08-11T11:16:37.237Z,23.50
2018-08-11T11:19:05.814Z,23.60
2018-08-11T11:21:34.114Z,23.70
2018-08-11T11:24:02.356Z,23.90
2018-08-11T11:26:30.785Z,24.10
2018-08-11T11:28:59.069Z,24.30
2018-08-11T11:31:27.433Z,24.10
2018-08-11T11:33:56.134Z,23.60
2018-08-11T11:36:24.766Z,23.30
2018-08-11T11:38:53.350Z,23.50
2018-08-11T11:41:21.651Z,23.80
2018-08-11T11:43:50.320Z,24.00
2018-08-11T11:46:18.578Z,24.30
2018-08-11T11:48:46.859Z,24.80
2018-08-11T11:51:15.206Z,25.10
2018-08-11T11:53:43.535Z,25.20
2018-08-11T11:56:11.875Z,24.70
2018-08-11T11:58:40.497Z,24.40
2018-08-11T12:01:08.906Z,24.40
2018-08-11T12:03:37.239Z,24.20
2018-08-11T12:06:05.583Z,24.20
2018-08-11T12:08:33.975Z,24.00
2018-08-11T12:11:02.443Z,23.90
2018-08-11T12:13:37.087Z,24.00
2018-08-11T12:16:05.347Z,24.30
2018-08-11T12:18:33.655Z,24.30
2018-08-11T12:21:02.347Z,24.40
2018-08-11T12:23:30.787Z,24.70
2018-08-11T12:25:59.079Z,24.90
2018-08-11T12:28:34.429Z,25.20
2018-08-11T12:31:02.826Z,25.10
2018-08-11T12:33:31.093Z,25.10
2018-08-11T12:35:59.609Z,25.10
2018-08-11T12:38:27.949Z,24.90
2018-08-11T12:40:57.069Z,24.60
2018-08-11T12:43:25.595Z,24.40
2018-08-11T12:45:53.896Z,24.30
2018-08-11T12:48:22.369Z,24.30
2018-08-11T12:50:53.620Z,24.40
2018-08-11T12:53:22.096Z,24.60
2018-08-11T12:55:50.647Z,25.00
2018-08-11T12:58:19.304Z,25.00
2018-08-11T13:00:47.698Z,25.20
2018-08-11T13:03:16.034Z,25.60
2018-08-11T13:05:44.239Z,25.90
2018-08-11T13:08:12.767Z,25.70
2018-08-11T13:10:41.121Z,25.20
2018-08-11T13:13:09.409Z,25.10
2018-08-11T13:15:37.734Z,25.20
2018-08-11T13:18:06.208Z,25.00
2018-08-11T13:20:34.530Z,25.00
2018-08-11T13:23:02.732Z,25.30
2018-08-11T13:25:31.443Z,25.40
2018-08-11T13:27:59.698Z,25.30
2018-08-11T13:30:28.373Z,25.40
2018-08-11T13:32:56.626Z,25.30
2018-08-11T13:35:25.605Z,25.20
2018-08-11T13:37:55.175Z,25.20
2018-08-11T13:40:23.452Z,25.00
2018-08-11T13:42:51.742Z,25.00
2018-08-11T13:45:21.004Z,24.90
2018-08-11T13:47:49.336Z,25.20
2018-08-11T13:50:17.887Z,25.40
2018-08-11T13:52:46.383Z,25.50
2018-08-11T13:55:14.674Z,25.50
2018-08-11T13:57:43.346Z,25.70
2018-08-11T14:00:12.606Z,25.80
2018-08-11T14:02:41.186Z,25.80
2018-08-11T14:05:09.565Z,25.70
2018-08-11T14:07:38.222Z,25.50
2018-08-11T14:10:08.292Z,25.40
2018-08-11T14:12:37.467Z,25.40
2018-08-11T14:15:06.259Z,25.50
2018-08-11T14:17:34.412Z,25.40
2018-08-11T14:20:02.730Z,25.70
2018-08-11T14:22:30.987Z,25.90
2018-08-11T14:24:59.612Z,25.80
2018-08-11T14:27:27.949Z,25.50
2018-08-11T14:29:56.302Z,25.50
2018-08-11T14:32:24.552Z,25.30
2018-08-11T14:34:52.834Z,25.40
2018-08-11T14:37:21.106Z,25.30
2018-08-11T14:39:49.571Z,25.00
2018-08-11T14:42:18.036Z,25.00
2018-08-11T14:44:46.296Z,25.10
2018-08-11T14:47:14.871Z,25.30
2018-08-11T14:49:43.133Z,25.40
2018-08-11T14:52:11.357Z,25.40
2018-08-11T14:54:40.561Z,25.30
2018-08-11T14:57:08.821Z,25.50
2018-08-11T14:59:37.210Z,25.40
2018-08-11T15:02:05.570Z,25.50
2018-08-11T15:04:33.924Z,25.70
2018-08-11T15:07:02.916Z,25.60
2018-08-11T15:09:31.166Z,25.70
2018-08-11T15:11:59.610Z,25.60
2018-08-11T15:14:28.052Z,25.40
2018-08-11T15:16:56.336Z,25.40
2018-08-11T15:19:24.582Z,25.50
2018-08-11T15:21:59.526Z,25.40
2018-08-11T15:24:27.766Z,25.30
2018-08-11T15:26:56.169Z,25.20
2018-08-11T15:29:24.566Z,25.20
2018-08-11T15:31:52.932Z,26.90
2018-08-11T15:34:21.187Z,25.20
2018-08-11T15:36:49.429Z,25.20
2018-08-11T15:39:17.718Z,25.20
2018-08-11T15:41:46.000Z,25.20
2018-08-11T15:44:14.282Z,25.40
2018-08-11T15:46:42.552Z,25.30
2018-08-11T15:49:10.936Z,25.30
2018-08-11T15:51:39.340Z,25.20
2018-08-11T15:54:07.729Z,25.30
2018-08-11T15:56:36.036Z,25.30
2018-08-11T15:59:04.334Z,25.40
2018-08-11T16:01:32.750Z,25.30
2018-08-11T16:04:01.334Z,25.10
2018-08-11T16:06:29.586Z,25.10
2018-08-11T16:08:58.178Z,25.20
2018-08-11T16:11:26.680Z,25.30
2018-08-11T16:13:55.210Z,25.40
2018-08-11T16:16:23.794Z,25.50
2018-08-11T16:18:52.295Z,25.50
2018-08-11T16:21:20.584Z,25.30
2018-08-11T16:23:49.084Z,25.00
2018-08-11T16:26:17.366Z,25.10
2018-08-11T16:28:45.683Z,25.20
2018-08-11T16:31:14.142Z,25.40
2018-08-11T16:33:42.550Z,25.00
2018-08-11T16:36:10.870Z,24.90
2018-08-11T16:38:39.226Z,24.90
2018-08-11T16:41:07.888Z,24.80
2018-08-11T16:43:36.153Z,24.60
2018-08-11T16:46:04.481Z,24.60
2018-08-11T16:48:32.949Z,24.50
2018-08-11T16:51:01.250Z,24.50
2018-08-11T16:53:36.206Z,24.50
2018-08-11T16:56:04.531Z,24.60
2018-08-11T16:58:32.978Z,24.60
2018-08-11T17:01:01.364Z,24.60
2018-08-11T17:03:30.158Z,24.60
2018-08-11T17:05:58.478Z,24.60
2018-08-11T17:08:27.473Z,24.70
2018-08-11T17:10:55.729Z,24.60
2018-08-11T17:13:24.014Z,24.60
2018-08-11T17:15:52.324Z,24.60
2018-08-11T17:18:20.649Z,24.60
2018-08-11T17:20:48.936Z,24.50
2018-08-11T17:23:17.718Z,24.40
2018-08-11T17:25:45.959Z,24.50
2018-08-11T17:28:14.249Z,24.40
2018-08-11T17:30:42.513Z,24.40
2018-08-11T17:33:10.882Z,24.30
2018-08-11T17:35:39.210Z,24.20
2018-08-11T17:38:07.747Z,24.10
2018-08-11T17:40:36.099Z,24.10
2018-08-11T17:43:04.538Z,24.10
2018-08-11T17:45:32.843Z,24.10
2018-08-11T17:48:01.133Z,24.10
2018-08-11T17:50:29.453Z,23.90
2018-08-11T17:52:57.775Z,23.90
2018-08-11T17:55:26.208Z,23.80
2018-08-11T17:57:58.307Z,23.70
2018-08-11T18:00:33.295Z,23.60
2018-08-11T18:03:01.523Z,23.60
2018-08-11T18:05:29.775Z,23.70
2018-08-11T18:07:58.103Z,23.80
2018-08-11T18:10:26.306Z,23.80
2018-08-11T18:12:54.685Z,23.90
2018-08-11T18:15:22.854Z,23.90
2018-08-11T18:17:51.160Z,23.90
2018-08-11T18:20:19.443Z,23.90
2018-08-11T18:22:47.708Z,23.90
2018-08-11T18:25:16.106Z,23.80
2018-08-11T18:27:44.396Z,23.70
2018-08-11T18:30:12.737Z,23.70
2018-08-11T18:32:40.948Z,23.60
2018-08-11T18:35:09.491Z,23.50
2018-08-11T18:37:37.737Z,23.50
2018-08-11T18:40:06.480Z,23.40
2018-08-11T18:42:34.847Z,23.30
2018-08-11T18:45:03.090Z,23.30
2018-08-11T18:47:31.403Z,23.30
2018-08-11T18:49:59.686Z,23.30
2018-08-11T18:52:28.023Z,23.20
2018-08-11T18:54:56.302Z,23.10
2018-08-11T18:57:24.692Z,23.20
2018-08-11T18:59:53.113Z,23.20
2018-08-11T19:02:21.362Z,23.20
2018-08-11T19:04:49.776Z,23.20
2018-08-11T19:07:18.146Z,23.20
2018-08-11T19:09:46.426Z,23.20
2018-08-11T19:12:14.744Z,23.20
2018-08-11T19:14:43.073Z,23.20
2018-08-11T19:17:11.388Z,23.20
2018-08-11T19:19:39.931Z,23.20
2018-08-11T19:22:08.314Z,23.20
2018-08-11T19:24:36.625Z,23.20
2018-08-11T19:27:05.322Z,23.20
2018-08-11T19:29:33.599Z,23.20
2018-08-11T19:32:01.923Z,23.20
2018-08-11T19:34:30.485Z,23.20
2018-08-11T19:36:58.748Z,23.20
2018-08-11T19:39:27.160Z,23.10
2018-08-11T19:41:55.459Z,23.10
2018-08-11T19:44:23.714Z,23.10
2018-08-11T19:46:52.011Z,23.10
2018-08-11T19:49:20.414Z,23.00
2018-08-11T19:51:48.804Z,23.00
2018-08-11T19:54:17.078Z,22.90
2018-08-11T19:56:45.419Z,22.90
2018-08-11T19:59:13.728Z,22.90
2018-08-11T20:01:42.088Z,23.00
2018-08-11T20:04:13.115Z,22.90
2018-08-11T20:06:42.183Z,22.90
2018-08-11T20:09:11.382Z,22.90
2018-08-11T20:11:39.811Z,22.90
2018-08-11T20:14:08.150Z,22.90
2018-08-11T20:16:36.439Z,22.80
2018-08-11T20:19:04.968Z,22.80
2018-08-11T20:21:33.187Z,22.70
2018-08-11T20:24:01.466Z,22.60
2018-08-11T20:26:29.742Z,22.60
2018-08-11T20:28:58.037Z,22.60
2018-08-11T20:31:26.342Z,22.60
2018-08-11T20:33:54.603Z,22.60
2018-08-11T20:36:22.980Z,22.50
2018-08-11T20:38:51.218Z,22.50
2018-08-11T20:41:19.558Z,22.50
2018-08-11T20:43:47.876Z,22.50
2018-08-11T20:46:16.261Z,22.50
2018-08-11T20:48:44.569Z,22.40
2018-08-11T20:51:12.912Z,22.40
2018-08-11T20:53:41.243Z,22.40
2018-08-11T20:56:09.465Z,22.30
2018-08-11T20:58:37.764Z,22.30
2018-08-11T21:01:06.482Z,22.30
2018-08-11T21:03:34.857Z,22.20
2018-08-11T21:06:03.108Z,22.20
2018-08-11T21:08:31.542Z,22.10
2018-08-11T21:10:59.835Z,21.50
2018-08-11T21:13:28.155Z,22.00
2018-08-11T21:15:56.546Z,22.00
2018-08-11T21:18:24.862Z,22.00
2018-08-11T21:20:53.786Z,22.00
2018-08-11T21:23:22.230Z,22.00
2018-08-11T21:25:51.411Z,22.00
2018-08-11T21:28:19.645Z,22.00
2018-08-11T21:30:48.036Z,21.90
2018-08-11T21:33:16.490Z,21.90
2018-08-11T21:35:44.766Z,21.90
2018-08-11T21:38:13.574Z,21.80
2018-08-11T21:40:41.900Z,21.80
2018-08-11T21:43:10.227Z,21.80
2018-08-11T21:45:38.692Z,21.80
2018-08-11T21:48:07.026Z,21.80
2018-08-11T21:50:35.288Z,21.70
2018-08-11T21:53:03.624Z,21.70
2018-08-11T21:55:32.764Z,21.70
2018-08-11T21:58:01.003Z,21.70
2018-08-11T22:00:31.262Z,21.60
2018-08-11T22:03:00.507Z,21.60
2018-08-11T22:05:28.929Z,21.60
2018-08-11T22:07:58.446Z,21.60
2018-08-11T22:10:27.354Z,21.60
2018-08-11T22:12:56.416Z,21.60
2018-08-11T22:15:24.771Z,21.60
2018-08-11T22:17:53.206Z,21.60
2018-08-11T22:20:21.559Z,21.60
2018-08-11T22:22:49.843Z,21.60
2018-08-11T22:25:18.226Z,21.60
2018-08-11T22:27:46.545Z,21.60
2018-08-11T22:30:15.019Z,21.60
2018-08-11T22:32:44.171Z,21.60
2018-08-11T22:35:18.752Z,21.60
2018-08-11T22:37:47.968Z,21.50
2018-08-11T22:40:16.539Z,21.50
2018-08-11T22:42:45.272Z,21.50
2018-08-11T22:45:14.331Z,21.50
2018-08-11T22:47:42.723Z,21.50
2018-08-11T22:50:12.695Z,21.50
2018-08-11T22:52:41.121Z,21.40
2018-08-11T22:55:09.627Z,21.40
2018-08-11T22:57:38.166Z,21.40
2018-08-11T23:00:17.495Z,21.40
2018-08-11T23:02:46.083Z,21.40
2018-08-11T23:05:15.176Z,21.40
2018-08-11T23:07:43.600Z,21.30
2018-08-11T23:10:13.519Z,21.30
2018-08-11T23:12:42.748Z,21.30
2018-08-11T23:15:14.083Z,21.20
2018-08-11T23:17:43.935Z,21.20
2018-08-11T23:20:13.776Z,21.10
2018-08-11T23:22:42.115Z,21.10
2018-08-11T23:25:10.967Z,21.10
2018-08-11T23:27:40.892Z,21.10
2018-08-11T23:30:12.013Z,21.00
2018-08-11T23:32:41.449Z,21.00
2018-08-11T23:35:10.219Z,21.00
2018-08-11T23:37:38.635Z,20.90
2018-08-11T23:40:08.173Z,20.90
2018-08-11T23:42:37.284Z,20.90
2018-08-11T23:45:08.574Z,20.80
2018-08-11T23:47:37.159Z,20.80
2018-08-11T23:50:06.501Z,20.80
2018-08-11T23:52:35.163Z,20.80
2018-08-11T23:55:04.028Z,20.80
2018-08-11T23:57:32.414Z,20.70
